Time;durP1;ratioP1;P1;durP2;ratioP2;P2;SDS_P1;SDS_P2;PMS_P1;PMS_P2;Temp;Humidity;BMP_temperature;BMP_pressure;BME280_temperature;BME280_humidity;BME280_pressure;Samples;Min_cycle;Max_cycle;Signal;HPM_P1;HPM_P2
2024/02/15 00:02:26;;;;;;;;;;;;;;;4.17;100.00;101084.80;108240;1252;74721;-79
2024/02/15 00:04:53;;;;;;;;;;;;;;;4.15;100.00;101087.07;108250;1254;73014;-79
2024/02/15 00:07:22;;;;;;;;;;;;;;;4.12;100.00;101091.14;108160;1253;72445;-77
2024/02/15 00:09:49;;;;;;;;;;;;;;;4.08;100.00;101093.69;108153;1255;61304;-77
2024/02/15 00:12:16;;;;;;;;;;;;;;;4.04;100.00;101092.05;108089;1253;61182;-78
2024/02/15 00:14:43;;;;;;;;;;;;;;;4.01;100.00;101092.77;108184;1257;73540;-79
2024/02/15 00:17:11;;;;;;;;;;;;;;;3.99;100.00;101096.19;108205;1254;71589;-79
2024/02/15 00:19:41;;;;;;;;;;;;;;;3.99;100.00;101095.84;108136;1255;72678;-78
2024/02/15 00:22:08;;;;;;;;;;;;;;;3.98;100.00;101099.61;108192;1257;61330;-79
2024/02/15 00:24:37;;;;;;;;;;;;;;;3.98;100.00;101097.90;108144;1254;61096;-80
2024/02/15 00:27:04;;;;;;;;;;;;;;;3.98;100.00;101097.58;108196;1256;74607;-80
2024/02/15 00:29:31;;;;;;;;;;;;;;;3.97;100.00;101096.38;108146;1254;71028;-78
2024/02/15 00:31:59;;;;;;;;;;;;;;;3.97;100.00;101101.70;108235;1254;71366;-77
2024/02/15 00:34:26;;;;;;;;;;;;;;;3.97;100.00;101103.42;108201;1257;61375;-76
2024/02/15 00:36:54;;;;;;;;;;;;;;;3.96;100.00;101102.48;108087;1253;61187;-77
2024/02/15 00:39:20;;;;;;;;;;;;;;;3.96;100.00;101102.32;108127;1255;74623;-77
2024/02/15 00:41:48;;;;;;;;;;;;;;;3.96;100.00;101101.84;108127;1254;71470;-77
2024/02/15 00:44:15;;;;;;;;;;;;;;;3.97;100.00;101106.42;108212;1253;71417;-78
2024/02/15 00:46:43;;;;;;;;;;;;;;;3.98;100.00;101104.24;108143;1254;61220;-77
2024/02/15 00:49:10;;;;;;;;;;;;;;;4.00;100.00;101106.31;108185;1256;61189;-77
2024/02/15 00:51:38;;;;;;;;;;;;;;;4.01;100.00;101103.67;108196;1257;74668;-77
2024/02/15 00:54:04;;;;;;;;;;;;;;;4.03;100.00;101106.27;108150;1254;72524;-77
2024/02/15 00:56:34;;;;;;;;;;;;;;;4.04;100.00;101107.71;108168;1256;72639;-78
2024/02/15 00:59:01;;;;;;;;;;;;;;;4.04;100.00;101111.56;108125;1254;61112;-78
2024/02/15 01:01:28;;;;;;;;;;;;;;;4.03;100.00;101110.36;108110;1254;61259;-78
2024/02/15 01:03:55;;;;;;;;;;;;;;;4.02;100.00;101110.32;108054;1257;74576;-81
2024/02/15 01:06:22;;;;;;;;;;;;;;;4.02;100.00;101109.79;108220;1257;72564;-80
2024/02/15 01:08:49;;;;;;;;;;;;;;;4.00;100.00;101106.56;108176;1256;72765;-79
2024/02/15 01:11:15;;;;;;;;;;;;;;;3.99;100.00;101105.09;108191;1254;61137;-80
2024/02/15 01:13:44;;;;;;;;;;;;;;;4.00;100.00;101106.59;108272;1253;61012;-80
2024/02/15 01:16:10;;;;;;;;;;;;;;;4.00;100.00;101109.28;108347;1253;74456;-79
2024/02/15 01:18:37;;;;;;;;;;;;;;;3.98;100.00;101108.76;108338;1256;72774;-81
2024/02/15 01:21:04;;;;;;;;;;;;;;;3.98;100.00;101109.56;108328;1253;72776;-79
2024/02/15 01:23:32;;;;;;;;;;;;;;;3.97;100.00;101111.07;108300;1254;61438;-80
2024/02/15 01:26:01;;;;;;;;;;;;;;;4.00;100.00;101110.84;108376;1256;61109;-80
2024/02/15 01:28:27;;;;;;;;;;;;;;;4.02;100.00;101112.63;108327;1254;74398;-79
2024/02/15 01:30:54;;;;;;;;;;;;;;;4.00;100.00;101111.19;108411;1254;72822;-80
2024/02/15 01:33:21;;;;;;;;;;;;;;;3.97;100.00;101113.83;108265;1256;70804;-79
2024/02/15 01:35:48;;;;;;;;;;;;;;;3.95;100.00;101116.48;108286;1253;61084;-80
2024/02/15 01:38:15;;;;;;;;;;;;;;;3.95;100.00;101117.38;108334;1253;61115;-80
2024/02/15 01:40:42;;;;;;;;;;;;;;;3.95;100.00;101117.73;108294;1253;74647;-80
2024/02/15 01:43:09;;;;;;;;;;;;;;;3.95;100.00;101118.35;108201;1254;71295;-79
2024/02/15 01:45:36;;;;;;;;;;;;;;;3.97;100.00;101119.89;108326;1254;72601;-80
2024/02/15 01:48:05;;;;;;;;;;;;;;;3.95;100.00;101122.73;108290;1254;61233;-79
2024/02/15 01:50:34;;;;;;;;;;;;;;;3.93;100.00;101122.48;108350;1254;61112;-79
2024/02/15 01:53:01;;;;;;;;;;;;;;;3.91;100.00;101124.30;108217;1254;74397;-80
2024/02/15 01:55:28;;;;;;;;;;;;;;;3.91;100.00;101124.39;108445;1254;72517;-80
2024/02/15 01:57:55;;;;;;;;;;;;;;;3.89;100.00;101125.48;108344;1254;71298;-80
2024/02/15 02:00:22;;;;;;;;;;;;;;;3.89;100.00;101122.52;108337;1254;61259;-80
2024/02/15 02:02:48;;;;;;;;;;;;;;;3.87;100.00;101120.39;108322;1254;61230;-79
2024/02/15 02:05:15;;;;;;;;;;;;;;;3.86;100.00;101118.92;108286;1254;74635;-81
2024/02/15 02:07:42;;;;;;;;;;;;;;;3.86;100.00;101116.20;108319;1253;71566;-80
2024/02/15 02:10:15;;;;;;;;;;;;;;;3.87;100.00;101120.34;108334;1256;72667;-79
2024/02/15 02:12:44;;;;;;;;;;;;;;;3.87;100.00;101120.19;108225;1254;61262;-81
2024/02/15 02:15:14;;;;;;;;;;;;;;;3.87;100.00;101118.44;108261;1253;59394;-80
2024/02/15 02:17:41;;;;;;;;;;;;;;;3.87;100.00;101117.19;108262;1255;74689;-79
2024/02/15 02:20:10;;;;;;;;;;;;;;;3.88;100.00;101121.38;108294;1254;75273;-79
2024/02/15 02:22:38;;;;;;;;;;;;;;;3.91;100.00;101120.15;108286;1256;72854;-79
2024/02/15 02:25:05;;;;;;;;;;;;;;;3.90;100.00;101118.33;108272;1253;61701;-80
2024/02/15 02:27:35;;;;;;;;;;;;;;;3.89;100.00;101122.11;108238;1254;61128;-80
2024/02/15 02:30:06;;;;;;;;;;;;;;;3.88;100.00;101120.00;108252;1254;74603;-80
2024/02/15 02:32:36;;;;;;;;;;;;;;;3.88;100.00;101121.02;108281;1256;72922;-80
2024/02/15 02:35:03;;;;;;;;;;;;;;;3.89;100.00;101113.34;108239;1253;73834;-79
2024/02/15 02:37:30;;;;;;;;;;;;;;;3.90;100.00;101119.13;108289;1257;61231;-79
2024/02/15 02:39:57;;;;;;;;;;;;;;;3.92;100.00;101122.60;108223;1257;61285;-79
2024/02/15 02:42:24;;;;;;;;;;;;;;;3.93;100.00;101129.08;108213;1254;74464;-80
2024/02/15 02:44:51;;;;;;;;;;;;;;;3.94;100.00;101122.02;108261;1254;72666;-80
2024/02/15 02:47:18;;;;;;;;;;;;;;;3.94;100.00;101124.15;108253;1254;71221;-80
2024/02/15 02:49:45;;;;;;;;;;;;;;;3.93;100.00;101120.05;108382;1253;61326;-81
2024/02/15 02:52:12;;;;;;;;;;;;;;;3.94;100.00;101121.63;108347;1254;61112;-81
2024/02/15 02:54:39;;;;;;;;;;;;;;;3.96;100.00;101125.30;108249;1253;74434;-80
2024/02/15 02:57:06;;;;;;;;;;;;;;;3.97;100.00;101122.97;108250;1253;72562;-79
2024/02/15 02:59:35;;;;;;;;;;;;;;;3.98;100.00;101125.67;108353;1254;72662;-80
2024/02/15 03:02:03;;;;;;;;;;;;;;;3.97;100.00;101128.18;108365;1254;61224;-79
2024/02/15 03:04:32;;;;;;;;;;;;;;;3.94;100.00;101127.86;108366;1254;60273;-81
2024/02/15 03:06:59;;;;;;;;;;;;;;;3.94;100.00;101130.50;108438;1254;74486;-81
2024/02/15 03:09:29;;;;;;;;;;;;;;;3.93;100.00;101135.74;108272;1254;72705;-81
2024/02/15 03:11:57;;;;;;;;;;;;;;;3.92;100.00;101143.67;108268;1254;73666;-80
2024/02/15 03:14:25;;;;;;;;;;;;;;;3.90;100.00;101143.70;108246;1254;61123;-80
2024/02/15 03:16:52;;;;;;;;;;;;;;;3.88;100.00;101148.40;108299;1254;61330;-82
2024/02/15 03:19:22;;;;;;;;;;;;;;;3.87;100.00;101149.95;108279;1253;74534;-81
2024/02/15 03:21:49;;;;;;;;;;;;;;;3.87;100.00;101150.10;108303;1254;72993;-81
2024/02/15 03:24:15;;;;;;;;;;;;;;;3.87;100.00;101149.90;108333;1253;72559;-81
2024/02/15 03:26:42;;;;;;;;;;;;;;;3.87;100.00;101153.39;108315;1254;61327;-80
2024/02/15 03:29:09;;;;;;;;;;;;;;;3.88;100.00;101154.87;108212;1252;61092;-81
2024/02/15 03:31:36;;;;;;;;;;;;;;;3.89;100.00;101155.82;108217;1254;74683;-81
2024/02/15 03:34:06;;;;;;;;;;;;;;;3.89;100.00;101159.48;108314;1254;71923;-82
2024/02/15 03:36:33;;;;;;;;;;;;;;;3.89;100.00;101158.34;108304;1254;72778;-82
2024/02/15 03:39:00;;;;;;;;;;;;;;;3.88;100.00;101161.42;108377;1254;61100;-79
2024/02/15 03:41:32;;;;;;;;;;;;;;;3.88;100.00;101158.77;108390;1253;61209;-78
2024/02/15 03:44:00;;;;;;;;;;;;;;;3.88;100.00;101159.67;108249;1257;74718;-79
2024/02/15 03:46:27;;;;;;;;;;;;;;;3.84;100.00;101154.85;108336;1254;72507;-80
2024/02/15 03:48:54;;;;;;;;;;;;;;;3.83;100.00;101157.33;108384;1254;72428;-81
2024/02/15 03:51:23;;;;;;;;;;;;;;;3.82;100.00;101158.10;108318;1254;61141;-80
2024/02/15 03:53:52;;;;;;;;;;;;;;;3.82;100.00;101158.96;108394;1254;61345;-81
2024/02/15 03:56:21;;;;;;;;;;;;;;;3.84;100.00;101163.36;108398;1253;74427;-81
2024/02/15 03:58:49;;;;;;;;;;;;;;;3.86;100.00;101165.15;108334;1253;72617;-81
2024/02/15 04:01:16;;;;;;;;;;;;;;;3.87;100.00;101166.29;108303;1254;72715;-80
2024/02/15 04:03:43;;;;;;;;;;;;;;;3.89;100.00;101171.02;108386;1253;61204;-80
2024/02/15 04:06:11;;;;;;;;;;;;;;;3.88;100.00;101174.07;108328;1254;61074;-80
2024/02/15 04:08:38;;;;;;;;;;;;;;;3.86;100.00;101177.19;108348;1253;74607;-82
2024/02/15 04:11:10;;;;;;;;;;;;;;;3.84;100.00;101177.29;108348;1254;71712;-80
2024/02/15 04:13:37;;;;;;;;;;;;;;;3.83;100.00;101177.73;108316;1253;72674;-82
2024/02/15 04:16:04;;;;;;;;;;;;;;;3.82;100.00;101186.15;108281;1254;61317;-80
2024/02/15 04:18:32;;;;;;;;;;;;;;;3.79;100.00;101186.84;108324;1253;61961;-81
2024/02/15 04:20:59;;;;;;;;;;;;;;;3.77;100.00;101189.25;108319;1254;72804;-81
2024/02/15 04:23:26;;;;;;;;;;;;;;;3.75;100.00;101182.66;108327;1254;71910;-81
2024/02/15 04:25:54;;;;;;;;;;;;;;;3.73;100.00;101188.10;108258;1253;72633;-81
2024/02/15 04:28:20;;;;;;;;;;;;;;;3.74;100.00;101191.39;108323;1253;61110;-80
2024/02/15 04:30:48;;;;;;;;;;;;;;;3.73;100.00;101188.35;108341;1254;61240;-80
2024/02/15 04:33:15;;;;;;;;;;;;;;;3.72;100.00;101190.55;108287;1254;73519;-80
2024/02/15 04:35:43;;;;;;;;;;;;;;;3.73;100.00;101191.84;108388;1254;73197;-81
2024/02/15 04:38:10;;;;;;;;;;;;;;;3.73;100.00;101200.02;108378;1253;72584;-80
2024/02/15 04:40:39;;;;;;;;;;;;;;;3.72;100.00;101201.11;108297;1252;61206;-80
2024/02/15 04:43:06;;;;;;;;;;;;;;;3.72;100.00;101202.02;108297;1253;60139;-80
2024/02/15 04:45:33;;;;;;;;;;;;;;;3.72;100.00;101202.74;108180;1254;74694;-80
2024/02/15 04:48:01;;;;;;;;;;;;;;;3.73;100.00;101202.98;108346;1254;72647;-79
2024/02/15 04:50:29;;;;;;;;;;;;;;;3.73;100.00;101202.29;108342;1253;72962;-80
2024/02/15 04:52:55;;;;;;;;;;;;;;;3.72;100.00;101202.86;108257;1254;61089;-79
2024/02/15 04:55:22;;;;;;;;;;;;;;;3.72;100.00;101201.19;108227;1254;61102;-79
2024/02/15 04:57:54;;;;;;;;;;;;;;;3.73;100.00;101205.30;108356;1253;72170;-81
2024/02/15 05:00:25;;;;;;;;;;;;;;;3.73;100.00;101212.45;108348;1254;71365;-80
2024/02/15 05:02:52;;;;;;;;;;;;;;;3.72;100.00;101210.17;108288;1253;72789;-80
2024/02/15 05:05:19;;;;;;;;;;;;;;;3.71;100.00;101221.95;108270;1254;61129;-79
2024/02/15 05:07:48;;;;;;;;;;;;;;;3.71;100.00;101225.27;108228;1254;61073;-80
2024/02/15 05:10:16;;;;;;;;;;;;;;;3.70;100.00;101222.31;108300;1253;74472;-80
2024/02/15 05:12:42;;;;;;;;;;;;;;;3.70;100.00;101227.44;108366;1254;70533;-81
2024/02/15 05:15:11;;;;;;;;;;;;;;;3.70;100.00;101231.70;108267;1254;72697;-80
2024/02/15 05:17:40;;;;;;;;;;;;;;;3.70;100.00;101236.83;108253;1254;61826;-80
2024/02/15 05:20:11;;;;;;;;;;;;;;;3.70;100.00;101235.23;108342;1253;61174;-79
2024/02/15 05:22:39;;;;;;;;;;;;;;;3.68;100.00;101245.10;108413;1253;74502;-79
2024/02/15 05:25:07;;;;;;;;;;;;;;;3.68;100.00;101239.83;108368;1254;72606;-80
2024/02/15 05:27:35;;;;;;;;;;;;;;;3.69;100.00;101245.56;108328;1253;72691;-80
2024/02/15 05:30:06;;;;;;;;;;;;;;;3.69;100.00;101244.13;108350;1253;61220;-80
2024/02/15 05:32:34;;;;;;;;;;;;;;;3.69;100.00;101247.75;108386;1253;61279;-79
2024/02/15 05:35:01;;;;;;;;;;;;;;;3.68;100.00;101246.52;108431;1253;73200;-80
2024/02/15 05:37:34;;;;;;;;;;;;;;;3.69;100.00;101247.67;108379;1253;72624;-80
2024/02/15 05:40:20;;;;;;;;;;;;;;;3.71;100.00;101248.15;108264;1253;72490;-79
2024/02/15 05:43:01;;;;;;;;;;;;;;;3.71;100.00;101249.18;108316;1252;61868;-82
2024/02/15 05:45:34;;;;;;;;;;;;;;;3.73;100.00;101251.23;108314;1253;59897;-79
2024/02/15 05:48:02;;;;;;;;;;;;;;;3.74;100.00;101249.96;108303;1254;74688;-79
2024/02/15 05:50:31;;;;;;;;;;;;;;;3.75;100.00;101254.65;108332;1254;72751;-79
2024/02/15 05:52:58;;;;;;;;;;;;;;;3.75;100.00;101254.62;108301;1254;71304;-78
2024/02/15 05:55:26;;;;;;;;;;;;;;;3.77;100.00;101259.14;108261;1254;61240;-80
2024/02/15 05:57:53;;;;;;;;;;;;;;;3.79;100.00;101259.31;108319;1253;61119;-80
2024/02/15 06:00:21;;;;;;;;;;;;;;;3.80;100.00;101262.69;108350;1254;74572;-80
2024/02/15 06:02:50;;;;;;;;;;;;;;;3.80;100.00;101262.36;108304;1253;73008;-79
2024/02/15 06:05:18;;;;;;;;;;;;;;;3.78;100.00;101261.70;108302;1254;71142;-79
2024/02/15 06:07:46;;;;;;;;;;;;;;;3.77;100.00;101263.04;108110;1253;61170;-79
2024/02/15 06:10:14;;;;;;;;;;;;;;;3.77;100.00;101268.16;108211;1253;61147;-80
2024/02/15 06:12:42;;;;;;;;;;;;;;;3.77;100.00;101268.12;108376;1252;74672;-81
2024/02/15 06:15:14;;;;;;;;;;;;;;;3.79;100.00;101271.80;108271;1254;72818;-80
2024/02/15 06:17:45;;;;;;;;;;;;;;;3.78;100.00;101273.69;108279;1254;72811;-81
2024/02/15 06:20:17;;;;;;;;;;;;;;;3.78;100.00;101277.05;108240;1253;61002;-81
2024/02/15 06:22:44;;;;;;;;;;;;;;;3.78;100.00;101279.31;108366;1252;59605;-80
2024/02/15 06:25:20;;;;;;;;;;;;;;;3.80;100.00;101285.02;108142;1254;74450;-80
2024/02/15 06:27:48;;;;;;;;;;;;;;;3.84;100.00;101286.26;108313;1253;71485;-81
2024/02/15 06:41:19;;;;;;;;;;;;;;;4.01;100.00;101297.86;108291;1254;72759;-81
2024/02/15 06:43:45;;;;;;;;;;;;;;;4.03;100.00;101301.48;108264;1253;73047;-81
2024/02/15 06:46:13;;;;;;;;;;;;;;;4.05;100.00;101302.30;108299;1253;61343;-80
2024/02/15 06:48:46;;;;;;;;;;;;;;;4.07;100.00;101308.78;108425;1253;59016;-79
2024/02/15 06:51:14;;;;;;;;;;;;;;;4.09;100.00;101310.75;108323;1254;74664;-79
2024/02/15 06:53:46;;;;;;;;;;;;;;;4.13;100.00;101306.91;108307;1256;73313;-81
2024/02/15 06:56:14;;;;;;;;;;;;;;;4.13;100.00;101305.69;108236;1253;71553;-82
2024/02/15 06:58:41;;;;;;;;;;;;;;;4.13;100.00;101306.45;108227;1253;60864;-81
2024/02/15 07:01:16;;;;;;;;;;;;;;;4.13;100.00;101306.21;105745;1253;10001911;-83
2024/02/15 07:03:55;;;;;;;;;;;;;;;4.14;100.00;101306.50;100620;1252;10002255;-79
2024/02/15 07:06:27;;;;;;;;;;;;;;;4.13;100.00;101309.43;108108;1255;73789;-80
2024/02/15 07:08:56;;;;;;;;;;;;;;;4.12;100.00;101310.24;108232;1253;71759;-80
2024/02/15 07:11:24;;;;;;;;;;;;;;;4.11;100.00;101312.14;108157;1254;61352;-81
2024/02/15 07:13:53;;;;;;;;;;;;;;;4.10;100.00;101307.70;108124;1253;59565;-80
2024/02/15 07:16:21;;;;;;;;;;;;;;;4.08;100.00;101304.73;108131;1254;73130;-80
2024/02/15 07:18:48;;;;;;;;;;;;;;;4.09;100.00;101308.92;108206;1253;72476;-79
2024/02/15 07:21:26;;;;;;;;;;;;;;;4.09;100.00;101308.92;108313;1254;72618;-80
2024/02/15 07:23:55;;;;;;;;;;;;;;;4.08;100.00;101306.92;108221;1253;61276;-81
2024/02/15 07:26:25;;;;;;;;;;;;;;;4.09;100.00;101304.85;108508;1256;61103;-82
2024/02/15 07:28:55;;;;;;;;;;;;;;;4.09;100.00;101307.46;108333;1256;74485;-81
2024/02/15 07:31:23;;;;;;;;;;;;;;;4.08;100.00;101305.63;108247;1253;72517;-81
2024/02/15 07:33:51;;;;;;;;;;;;;;;4.09;100.00;101303.96;108412;1252;72490;-79
2024/02/15 07:36:19;;;;;;;;;;;;;;;4.09;100.00;101304.98;108213;1253;61237;-79
2024/02/15 07:38:48;;;;;;;;;;;;;;;4.10;100.00;101306.85;108256;1254;61097;-78
2024/02/15 07:41:17;;;;;;;;;;;;;;;4.08;100.00;101309.52;108228;1254;74342;-81
2024/02/15 07:43:48;;;;;;;;;;;;;;;4.08;100.00;101309.19;108216;1252;72610;-80
2024/02/15 07:46:16;;;;;;;;;;;;;;;4.09;100.00;101311.00;108231;1254;71163;-81
2024/02/15 07:48:45;;;;;;;;;;;;;;;4.09;100.00;101309.01;108256;1253;61237;-78
2024/02/15 07:51:18;;;;;;;;;;;;;;;4.10;100.00;101312.05;108123;1254;61234;-79
2024/02/15 07:53:46;;;;;;;;;;;;;;;4.10;100.00;101313.64;108185;1256;73301;-81
2024/02/15 07:56:13;;;;;;;;;;;;;;;4.10;100.00;101314.48;108145;1254;72794;-78
2024/02/15 07:58:41;;;;;;;;;;;;;;;4.08;100.00;101318.11;108048;1254;73044;-79
2024/02/15 08:01:23;;;;;;;;;;;;;;;4.07;100.00;101317.20;108118;1253;60981;-78
2024/02/15 08:03:56;;;;;;;;;;;;;;;4.07;100.00;101319.70;108199;1253;61234;-79
2024/02/15 08:06:32;;;;;;;;;;;;;;;4.05;100.00;101319.27;108234;1253;76069;-79
2024/02/15 08:09:00;;;;;;;;;;;;;;;4.05;100.00;101321.88;108405;1254;73830;-79
2024/02/15 08:11:27;;;;;;;;;;;;;;;4.07;100.00;101322.94;108209;1256;72920;-79
2024/02/15 08:13:59;;;;;;;;;;;;;;;4.06;100.00;101325.83;108207;1253;61283;-79
2024/02/15 08:16:27;;;;;;;;;;;;;;;4.05;100.00;101322.03;108364;1253;61104;-79
2024/02/15 08:18:56;;;;;;;;;;;;;;;4.07;100.00;101326.07;108378;1254;73357;-78
2024/02/15 08:21:32;;;;;;;;;;;;;;;4.09;100.00;101331.66;108393;1256;71217;-79
2024/02/15 08:24:05;;;;;;;;;;;;;;;4.09;100.00;101332.64;108356;1256;72884;-79
2024/02/15 08:26:32;;;;;;;;;;;;;;;4.11;100.00;101340.48;108401;1253;61119;-79
2024/02/15 08:29:00;;;;;;;;;;;;;;;4.11;100.00;101337.88;108455;1254;61237;-79
2024/02/15 08:31:27;;;;;;;;;;;;;;;4.08;100.00;101335.46;108420;1252;74480;-79
2024/02/15 08:33:53;;;;;;;;;;;;;;;4.06;100.00;101342.02;108274;1252;72558;-81
2024/02/15 08:36:20;;;;;;;;;;;;;;;4.06;100.00;101344.81;108207;1252;72032;-80
2024/02/15 08:38:49;;;;;;;;;;;;;;;4.06;100.00;101345.42;108369;1253;61034;-79
2024/02/15 08:41:20;;;;;;;;;;;;;;;4.08;100.00;101351.86;108326;1253;61100;-79
2024/02/15 08:43:50;;;;;;;;;;;;;;;4.12;100.00;101352.20;108377;1253;74734;-80
2024/02/15 08:46:26;;;;;;;;;;;;;;;4.12;100.00;101353.71;108397;1253;72986;-79
2024/02/15 08:48:53;;;;;;;;;;;;;;;4.08;100.00;101351.17;108366;1252;72525;-81
2024/02/15 08:51:22;;;;;;;;;;;;;;;4.07;100.00;101352.50;108385;1253;61166;-80
2024/02/15 08:53:51;;;;;;;;;;;;;;;4.09;100.00;101354.88;108313;1252;59877;-79
2024/02/15 08:56:19;;;;;;;;;;;;;;;4.13;100.00;101361.70;108268;1254;74753;-81
2024/02/15 08:58:46;;;;;;;;;;;;;;;4.17;100.00;101363.35;108266;1252;72867;-80
2024/02/15 09:01:13;;;;;;;;;;;;;;;4.21;100.00;101366.55;108327;1253;72142;-81
2024/02/15 09:03:40;;;;;;;;;;;;;;;4.22;100.00;101368.35;108296;1254;61799;-80
2024/02/15 09:06:07;;;;;;;;;;;;;;;4.23;100.00;101377.25;108324;1253;61102;-80
2024/02/15 09:08:35;;;;;;;;;;;;;;;4.21;100.00;101377.81;108247;1254;74775;-81
2024/02/15 09:11:01;;;;;;;;;;;;;;;4.21;100.00;101378.51;108465;1254;72628;-80
2024/02/15 09:13:33;;;;;;;;;;;;;;;4.20;100.00;101379.31;108389;1254;73915;-78
2024/02/15 09:16:00;;;;;;;;;;;;;;;4.19;100.00;101381.75;108314;1253;61147;-80
2024/02/15 09:18:28;;;;;;;;;;;;;;;4.20;100.00;101382.85;108275;1253;61066;-80
2024/02/15 09:20:55;;;;;;;;;;;;;;;4.23;100.00;101385.30;108185;1254;75979;-79
2024/02/15 09:23:23;;;;;;;;;;;;;;;4.25;100.00;101389.48;108298;1254;72843;-80
2024/02/15 09:25:51;;;;;;;;;;;;;;;4.25;100.00;101389.31;108224;1253;71310;-80
2024/02/15 09:28:24;;;;;;;;;;;;;;;4.27;100.00;101388.91;108354;1253;61340;-80
2024/02/15 09:30:53;;;;;;;;;;;;;;;4.30;100.00;101395.60;108423;1253;61077;-80
2024/02/15 09:33:20;;;;;;;;;;;;;;;4.29;100.00;101391.56;108680;1254;74680;-80
2024/02/15 09:35:47;;;;;;;;;;;;;;;4.29;100.00;101391.65;108290;1253;72757;-81
2024/02/15 09:38:19;;;;;;;;;;;;;;;4.28;100.00;101388.80;108398;1253;72034;-81
2024/02/15 09:40:49;;;;;;;;;;;;;;;4.26;100.00;101385.41;108437;1254;61083;-81
2024/02/15 09:43:16;;;;;;;;;;;;;;;4.24;100.00;101386.60;108385;1254;61373;-79
2024/02/15 09:45:43;;;;;;;;;;;;;;;4.25;100.00;101389.91;108289;1253;73419;-80
2024/02/15 09:48:10;;;;;;;;;;;;;;;4.23;100.00;101387.38;108417;1254;72817;-80
2024/02/15 09:50:42;;;;;;;;;;;;;;;4.23;100.00;101385.55;108348;1254;72776;-79
2024/02/15 09:53:09;;;;;;;;;;;;;;;4.22;100.00;101386.45;108076;1253;334879;-80
2024/02/15 09:55:43;;;;;;;;;;;;;;;4.24;100.00;101379.57;108387;1253;59673;-82
2024/02/15 09:58:12;;;;;;;;;;;;;;;4.25;100.00;101384.02;108251;1254;74806;-80
2024/02/15 10:00:39;;;;;;;;;;;;;;;4.26;100.00;101379.30;108275;1253;72575;-81
2024/02/15 10:03:08;;;;;;;;;;;;;;;4.30;100.00;101378.34;108199;1252;72766;-81
2024/02/15 10:05:35;;;;;;;;;;;;;;;4.36;100.00;101378.70;108344;1253;61231;-80
2024/02/15 10:08:04;;;;;;;;;;;;;;;4.43;100.00;101373.58;108439;1253;61121;-81
2024/02/15 10:10:33;;;;;;;;;;;;;;;4.51;100.00;101373.20;108426;1254;74487;-81
2024/02/15 10:13:00;;;;;;;;;;;;;;;4.55;100.00;101372.70;108290;1254;72899;-79
2024/02/15 10:15:31;;;;;;;;;;;;;;;4.56;100.00;101373.39;108233;1253;72535;-80
2024/02/15 10:18:04;;;;;;;;;;;;;;;4.56;100.00;101371.81;108327;1253;61145;-82
2024/02/15 10:20:31;;;;;;;;;;;;;;;4.59;100.00;101371.65;108222;1253;61182;-81
2024/02/15 10:22:58;;;;;;;;;;;;;;;4.62;100.00;101370.11;108242;1254;74590;-81
2024/02/15 10:25:27;;;;;;;;;;;;;;;4.65;100.00;101374.65;108389;1253;71564;-80
2024/02/15 10:28:06;;;;;;;;;;;;;;;4.70;100.00;101372.15;108240;1256;72571;-80
2024/02/15 10:30:34;;;;;;;;;;;;;;;4.72;100.00;101372.56;108224;1253;62522;-81
2024/02/15 10:33:03;;;;;;;;;;;;;;;4.71;100.00;101373.70;108312;1256;61362;-81
2024/02/15 10:35:34;;;;;;;;;;;;;;;4.74;100.00;101372.27;108327;1253;72590;-81
2024/02/15 10:38:08;;;;;;;;;;;;;;;4.76;100.00;101375.88;108391;1256;72551;-81
2024/02/15 10:40:35;;;;;;;;;;;;;;;4.75;100.00;101375.02;108331;1252;72604;-82
2024/02/15 10:43:05;;;;;;;;;;;;;;;4.72;100.00;101376.05;108262;1252;62301;-84
2024/02/15 10:45:32;;;;;;;;;;;;;;;4.69;100.00;101371.65;108170;1253;61240;-83
2024/02/15 10:47:59;;;;;;;;;;;;;;;4.62;100.00;101363.36;108310;1253;74546;-86
2024/02/15 10:50:26;;;;;;;;;;;;;;;4.55;100.00;101365.52;108573;1254;71572;-85
2024/02/15 10:52:57;;;;;;;;;;;;;;;4.55;100.00;101370.73;108337;1254;72361;-83
2024/02/15 10:55:48;;;;;;;;;;;;;;;4.56;100.00;101368.14;108334;1254;61228;-84
2024/02/15 10:58:17;;;;;;;;;;;;;;;4.58;100.00;101367.66;108405;1253;61138;-82
2024/02/15 11:00:44;;;;;;;;;;;;;;;4.57;100.00;101366.20;108454;1253;74695;-84
2024/02/15 11:03:25;;;;;;;;;;;;;;;4.59;100.00;101365.05;108163;1253;71885;-82
2024/02/15 11:05:52;;;;;;;;;;;;;;;4.63;100.00;101363.81;108231;1254;73868;-83
2024/02/15 11:08:20;;;;;;;;;;;;;;;4.64;100.00;101365.98;108335;1253;62298;-85
2024/02/15 11:10:47;;;;;;;;;;;;;;;4.67;100.00;101366.80;108205;1253;61137;-85
2024/02/15 11:13:14;;;;;;;;;;;;;;;4.71;100.00;101363.84;108167;1254;75007;-83
2024/02/15 11:15:45;;;;;;;;;;;;;;;4.74;100.00;101364.84;108281;1253;70378;-83
2024/02/15 11:18:12;;;;;;;;;;;;;;;4.75;100.00;101361.79;108364;1253;73677;-82
2024/02/15 11:20:49;;;;;;;;;;;;;;;4.75;100.00;101363.86;108898;1253;60072;-84
2024/02/15 11:23:23;;;;;;;;;;;;;;;4.78;100.00;101360.17;108333;1254;61096;-84
2024/02/15 11:26:01;;;;;;;;;;;;;;;4.80;100.00;101359.69;108386;1253;73377;-85
2024/02/15 11:28:31;;;;;;;;;;;;;;;4.84;100.00;101362.45;108370;1254;73917;-84
2024/02/15 11:30:58;;;;;;;;;;;;;;;4.88;100.00;101363.01;108272;1253;70581;-82
2024/02/15 11:33:26;;;;;;;;;;;;;;;4.92;100.00;101370.60;108408;1252;61345;-83
2024/02/15 11:36:07;;;;;;;;;;;;;;;4.98;100.00;101371.71;108507;1253;61131;-86
2024/02/15 11:38:34;;;;;;;;;;;;;;;4.99;100.00;101364.83;108422;1253;75955;-84
2024/02/15 11:41:10;;;;;;;;;;;;;;;4.98;100.00;101368.17;108355;1254;72808;-84
2024/02/15 11:43:45;;;;;;;;;;;;;;;4.97;100.00;101362.42;108365;1254;71177;-82
2024/02/15 11:46:19;;;;;;;;;;;;;;;4.98;100.00;101363.15;108328;1253;61476;-85
2024/02/15 11:48:46;;;;;;;;;;;;;;;5.01;100.00;101361.86;108271;1253;61211;-86
2024/02/15 11:51:51;;;;;;;;;;;;;;;5.05;100.00;101361.21;108315;1253;72713;-84
2024/02/15 11:54:20;;;;;;;;;;;;;;;5.08;100.00;101365.41;107577;1263;71437;-83
2024/02/15 11:57:13;;;;;;;;;;;;;;;5.09;100.00;101364.76;108294;1254;73592;-82
2024/02/15 11:59:55;;;;;;;;;;;;;;;5.07;100.00;101364.98;108285;1253;61247;-83
2024/02/15 12:18:38;;;;;;;;;;;;;;;5.07;100.00;101363.42;108307;1254;75567;-82
2024/02/15 12:19:17;;;;;;;;;;;;;;;5.03;100.00;101364.41;108470;1252;75810;-82
2024/02/15 12:21:46;;;;;;;;;;;;;;;5.02;100.00;101366.82;108246;1256;72795;-84
2024/02/15 12:24:13;;;;;;;;;;;;;;;5.01;100.00;101368.73;108071;1252;73282;-84
2024/02/15 12:26:41;;;;;;;;;;;;;;;5.01;100.00;101370.17;108337;1253;61332;-83
2024/02/15 12:29:09;;;;;;;;;;;;;;;5.02;100.00;101373.22;108372;1252;61321;-82
2024/02/15 12:31:38;;;;;;;;;;;;;;;5.02;100.00;101377.45;108415;1254;74964;-84
2024/02/15 12:34:07;;;;;;;;;;;;;;;4.98;100.00;101373.75;108389;1253;72796;-82
2024/02/15 12:36:42;;;;;;;;;;;;;;;4.94;100.00;101377.27;108347;1253;71993;-84
2024/02/15 12:39:16;;;;;;;;;;;;;;;4.89;100.00;101373.30;108278;1253;61276;-82
2024/02/15 12:41:52;;;;;;;;;;;;;;;4.82;100.00;101371.77;108278;1254;61218;-84
2024/02/15 12:44:24;;;;;;;;;;;;;;;4.77;100.00;101372.63;108521;1253;74554;-82
2024/02/15 12:46:56;;;;;;;;;;;;;;;4.74;100.00;101370.93;108720;1253;71459;-81
2024/02/15 12:49:23;;;;;;;;;;;;;;;4.74;100.00;101371.30;108484;1252;72536;-75
2024/02/15 12:51:55;;;;;;;;;;;;;;;4.73;100.00;101374.23;108330;1253;62238;-77
2024/02/15 12:54:23;;;;;;;;;;;;;;;4.72;100.00;101371.66;108300;1253;61093;-74
2024/02/15 12:56:52;;;;;;;;;;;;;;;4.72;100.00;101376.76;108418;1253;75028;-76
2024/02/15 12:59:20;;;;;;;;;;;;;;;4.72;100.00;101381.45;108017;1254;72759;-80
2024/02/15 13:01:47;;;;;;;;;;;;;;;4.70;100.00;101391.78;108270;1254;71519;-79